sensor_id;sensor_type;location;lat;lon;timestamp;P1;durP1;ratioP1;P2;durP2;ratioP2
77507;SDS011;66618;42.666;23.360;2023-04-01T00:01:43;26.27;;;13.73;;
77507;SDS011;66618;42.666;23.360;2023-04-01T00:04:09;23.67;;;13.38;;
77507;SDS011;66618;42.666;23.360;2023-04-01T00:06:34;19.90;;;10.05;;
77507;SDS011;66618;42.666;23.360;2023-04-01T00:09:00;18.73;;;9.90;;
77507;SDS011;66618;42.666;23.360;2023-04-01T00:11:25;19.55;;;9.90;;
77507;SDS011;66618;42.666;23.360;2023-04-01T00:13:52;21.13;;;10.43;;
77507;SDS011;66618;42.666;23.360;2023-04-01T00:16:19;18.02;;;10.65;;
77507;SDS011;66618;42.666;23.360;2023-04-01T00:18:45;16.77;;;10.07;;
77507;SDS011;66618;42.666;23.360;2023-04-01T00:21:12;21.20;;;10.68;;
77507;SDS011;66618;42.666;23.360;2023-04-01T00:23:39;17.50;;;9.85;;
77507;SDS011;66618;42.666;23.360;2023-04-01T00:26:04;18.52;;;9.90;;
77507;SDS011;66618;42.666;23.360;2023-04-01T00:28:30;17.83;;;10.30;;
77507;SDS011;66618;42.666;23.360;2023-04-01T00:30:56;18.10;;;10.20;;
77507;SDS011;66618;42.666;23.360;2023-04-01T00:33:21;21.13;;;9.45;;
77507;SDS011;66618;42.666;23.360;2023-04-01T00:35:47;17.25;;;9.70;;
77507;SDS011;66618;42.666;23.360;2023-04-01T00:38:12;17.65;;;9.38;;
77507;SDS011;66618;42.666;23.360;2023-04-01T00:40:40;17.80;;;9.18;;
77507;SDS011;66618;42.666;23.360;2023-04-01T00:43:10;16.13;;;9.63;;
77507;SDS011;66618;42.666;23.360;2023-04-01T00:45:39;17.92;;;9.45;;
77507;SDS011;66618;42.666;23.360;2023-04-01T00:48:19;16.50;;;9.65;;
77507;SDS011;66618;42.666;23.360;2023-04-01T00:50:51;16.20;;;9.20;;
77507;SDS011;66618;42.666;23.360;2023-04-01T00:53:18;16.88;;;9.35;;
77507;SDS011;66618;42.666;23.360;2023-04-01T00:55:47;16.92;;;8.60;;
77507;SDS011;66618;42.666;23.360;2023-04-01T00:58:16;17.48;;;9.75;;
77507;SDS011;66618;42.666;23.360;2023-04-01T01:00:42;17.83;;;8.98;;
77507;SDS011;66618;42.666;23.360;2023-04-01T01:03:08;14.40;;;8.60;;
77507;SDS011;66618;42.666;23.360;2023-04-01T01:05:38;11.52;;;8.05;;
77507;SDS011;66618;42.666;23.360;2023-04-01T01:08:23;14.95;;;8.05;;
77507;SDS011;66618;42.666;23.360;2023-04-01T01:10:52;15.23;;;7.70;;
77507;SDS011;66618;42.666;23.360;2023-04-01T01:13:40;16.30;;;8.63;;
77507;SDS011;66618;42.666;23.360;2023-04-01T01:16:12;15.48;;;7.63;;
77507;SDS011;66618;42.666;23.360;2023-04-01T01:24:13;14.15;;;7.75;;
77507;SDS011;66618;42.666;23.360;2023-04-01T01:26:45;15.52;;;7.85;;
77507;SDS011;66618;42.666;23.360;2023-04-01T01:29:22;19.00;;;8.85;;
77507;SDS011;66618;42.666;23.360;2023-04-01T01:35:10;13.38;;;6.80;;
77507;SDS011;66618;42.666;23.360;2023-04-01T01:38:00;10.50;;;4.63;;
77507;SDS011;66618;42.666;23.360;2023-04-01T01:40:28;10.48;;;5.45;;
77507;SDS011;66618;42.666;23.360;2023-04-01T01:42:56;9.80;;;6.68;;
77507;SDS011;66618;42.666;23.360;2023-04-01T01:45:23;12.70;;;6.47;;
77507;SDS011;66618;42.666;23.360;2023-04-01T01:47:50;9.68;;;5.95;;
77507;SDS011;66618;42.666;23.360;2023-04-01T01:50:16;10.18;;;6.28;;
77507;SDS011;66618;42.666;23.360;2023-04-01T01:52:42;13.10;;;5.40;;
77507;SDS011;66618;42.666;23.360;2023-04-01T01:55:26;9.75;;;5.20;;
77507;SDS011;66618;42.666;23.360;2023-04-01T01:57:53;11.63;;;5.65;;
77507;SDS011;66618;42.666;23.360;2023-04-01T02:00:20;8.23;;;5.45;;
77507;SDS011;66618;42.666;23.360;2023-04-01T02:02:47;9.02;;;5.95;;
77507;SDS011;66618;42.666;23.360;2023-04-01T02:05:20;9.80;;;5.28;;
77507;SDS011;66618;42.666;23.360;2023-04-01T02:07:49;10.95;;;5.10;;
77507;SDS011;66618;42.666;23.360;2023-04-01T02:10:25;8.02;;;4.72;;
77507;SDS011;66618;42.666;23.360;2023-04-01T02:12:52;12.07;;;5.53;;
77507;SDS011;66618;42.666;23.360;2023-04-01T02:15:19;8.90;;;5.03;;
77507;SDS011;66618;42.666;23.360;2023-04-01T02:17:46;9.18;;;5.30;;
77507;SDS011;66618;42.666;23.360;2023-04-01T02:20:18;7.47;;;5.10;;
77507;SDS011;66618;42.666;23.360;2023-04-01T02:22:53;8.45;;;5.53;;
77507;SDS011;66618;42.666;23.360;2023-04-01T02:25:23;9.77;;;5.45;;
77507;SDS011;66618;42.666;23.360;2023-04-01T02:27:52;8.82;;;5.32;;
77507;SDS011;66618;42.666;23.360;2023-04-01T02:30:18;7.95;;;5.40;;
77507;SDS011;66618;42.666;23.360;2023-04-01T02:32:44;9.40;;;5.28;;
77507;SDS011;66618;42.666;23.360;2023-04-01T02:35:10;9.93;;;5.30;;
77507;SDS011;66618;42.666;23.360;2023-04-01T02:37:38;8.35;;;5.18;;
77507;SDS011;66618;42.666;23.360;2023-04-01T02:40:07;9.73;;;5.00;;
77507;SDS011;66618;42.666;23.360;2023-04-01T02:42:34;10.38;;;5.00;;
77507;SDS011;66618;42.666;23.360;2023-04-01T02:45:00;10.70;;;4.90;;
77507;SDS011;66618;42.666;23.360;2023-04-01T02:47:25;10.30;;;5.20;;
77507;SDS011;66618;42.666;23.360;2023-04-01T02:49:51;9.65;;;5.53;;
77507;SDS011;66618;42.666;23.360;2023-04-01T02:52:22;8.00;;;4.82;;
77507;SDS011;66618;42.666;23.360;2023-04-01T02:54:48;12.27;;;5.47;;
77507;SDS011;66618;42.666;23.360;2023-04-01T02:57:14;10.27;;;4.80;;
77507;SDS011;66618;42.666;23.360;2023-04-01T02:59:39;9.02;;;4.95;;
77507;SDS011;66618;42.666;23.360;2023-04-01T03:02:04;9.55;;;4.50;;
77507;SDS011;66618;42.666;23.360;2023-04-01T03:04:30;6.60;;;4.47;;
77507;SDS011;66618;42.666;23.360;2023-04-01T03:06:55;6.90;;;4.63;;
77507;SDS011;66618;42.666;23.360;2023-04-01T03:09:21;9.13;;;5.10;;
77507;SDS011;66618;42.666;23.360;2023-04-01T03:11:46;11.02;;;5.30;;
77507;SDS011;66618;42.666;23.360;2023-04-01T03:14:12;10.20;;;5.38;;
77507;SDS011;66618;42.666;23.360;2023-04-01T03:16:37;10.52;;;5.95;;
77507;SDS011;66618;42.666;23.360;2023-04-01T03:19:02;11.13;;;6.47;;
77507;SDS011;66618;42.666;23.360;2023-04-01T03:21:28;11.82;;;6.15;;
77507;SDS011;66618;42.666;23.360;2023-04-01T03:23:53;11.77;;;6.60;;
77507;SDS011;66618;42.666;23.360;2023-04-01T03:26:19;11.98;;;6.65;;
77507;SDS011;66618;42.666;23.360;2023-04-01T03:28:44;16.00;;;7.35;;
77507;SDS011;66618;42.666;23.360;2023-04-01T03:31:10;11.20;;;6.40;;
77507;SDS011;66618;42.666;23.360;2023-04-01T03:33:36;12.35;;;6.40;;
77507;SDS011;66618;42.666;23.360;2023-04-01T03:36:01;13.10;;;7.10;;
77507;SDS011;66618;42.666;23.360;2023-04-01T03:38:31;10.57;;;6.28;;
77507;SDS011;66618;42.666;23.360;2023-04-01T03:40:57;12.95;;;7.05;;
77507;SDS011;66618;42.666;23.360;2023-04-01T03:43:22;13.45;;;7.57;;
77507;SDS011;66618;42.666;23.360;2023-04-01T03:45:48;14.23;;;7.13;;
77507;SDS011;66618;42.666;23.360;2023-04-01T03:48:15;14.35;;;7.00;;
77507;SDS011;66618;42.666;23.360;2023-04-01T03:50:41;11.15;;;7.03;;
77507;SDS011;66618;42.666;23.360;2023-04-01T03:53:06;14.52;;;7.70;;
77507;SDS011;66618;42.666;23.360;2023-04-01T03:55:32;14.63;;;7.60;;
77507;SDS011;66618;42.666;23.360;2023-04-01T03:57:57;14.70;;;7.97;;
77507;SDS011;66618;42.666;23.360;2023-04-01T04:00:23;13.32;;;8.05;;
77507;SDS011;66618;42.666;23.360;2023-04-01T04:02:48;14.05;;;7.82;;
77507;SDS011;66618;42.666;23.360;2023-04-01T04:05:14;15.57;;;8.75;;
77507;SDS011;66618;42.666;23.360;2023-04-01T04:07:39;15.35;;;7.30;;
77507;SDS011;66618;42.666;23.360;2023-04-01T04:10:05;14.68;;;8.65;;
77507;SDS011;66618;42.666;23.360;2023-04-01T04:12:30;15.68;;;7.90;;
77507;SDS011;66618;42.666;23.360;2023-04-01T04:14:56;15.00;;;8.35;;
77507;SDS011;66618;42.666;23.360;2023-04-01T04:17:21;17.20;;;8.30;;
77507;SDS011;66618;42.666;23.360;2023-04-01T04:19:47;16.05;;;7.63;;
77507;SDS011;66618;42.666;23.360;2023-04-01T04:22:12;14.88;;;7.63;;
77507;SDS011;66618;42.666;23.360;2023-04-01T04:24:37;13.43;;;6.68;;
77507;SDS011;66618;42.666;23.360;2023-04-01T04:27:03;9.75;;;6.13;;
77507;SDS011;66618;42.666;23.360;2023-04-01T04:29:29;13.48;;;6.40;;
77507;SDS011;66618;42.666;23.360;2023-04-01T04:31:54;11.68;;;7.15;;
77507;SDS011;66618;42.666;23.360;2023-04-01T04:34:20;10.63;;;6.40;;
77507;SDS011;66618;42.666;23.360;2023-04-01T04:36:47;10.60;;;6.03;;
77507;SDS011;66618;42.666;23.360;2023-04-01T04:39:12;12.55;;;6.10;;
77507;SDS011;66618;42.666;23.360;2023-04-01T04:41:38;14.93;;;6.88;;
77507;SDS011;66618;42.666;23.360;2023-04-01T04:44:03;14.10;;;6.45;;
77507;SDS011;66618;42.666;23.360;2023-04-01T04:46:29;14.85;;;7.97;;
77507;SDS011;66618;42.666;23.360;2023-04-01T04:48:55;14.23;;;6.97;;
77507;SDS011;66618;42.666;23.360;2023-04-01T04:51:20;12.70;;;7.22;;
77507;SDS011;66618;42.666;23.360;2023-04-01T04:53:46;13.85;;;6.40;;
77507;SDS011;66618;42.666;23.360;2023-04-01T04:56:12;10.68;;;6.65;;
77507;SDS011;66618;42.666;23.360;2023-04-01T04:58:38;12.60;;;6.68;;
77507;SDS011;66618;42.666;23.360;2023-04-01T05:01:11;12.38;;;6.57;;
77507;SDS011;66618;42.666;23.360;2023-04-01T05:06:03;12.98;;;6.55;;
77507;SDS011;66618;42.666;23.360;2023-04-01T05:08:29;12.30;;;6.55;;
77507;SDS011;66618;42.666;23.360;2023-04-01T05:10:55;15.23;;;6.30;;
77507;SDS011;66618;42.666;23.360;2023-04-01T05:13:20;11.68;;;6.47;;
77507;SDS011;66618;42.666;23.360;2023-04-01T05:15:46;12.57;;;7.00;;
77507;SDS011;66618;42.666;23.360;2023-04-01T05:18:11;11.63;;;6.45;;
77507;SDS011;66618;42.666;23.360;2023-04-01T05:20:37;10.85;;;6.45;;
77507;SDS011;66618;42.666;23.360;2023-04-01T05:23:02;11.43;;;7.15;;
77507;SDS011;66618;42.666;23.360;2023-04-01T05:25:28;9.57;;;6.25;;
77507;SDS011;66618;42.666;23.360;2023-04-01T05:27:53;14.02;;;6.97;;
77507;SDS011;66618;42.666;23.360;2023-04-01T05:30:19;12.85;;;6.65;;
77507;SDS011;66618;42.666;23.360;2023-04-01T05:32:44;9.77;;;6.05;;
77507;SDS011;66618;42.666;23.360;2023-04-01T05:35:10;12.13;;;5.55;;
77507;SDS011;66618;42.666;23.360;2023-04-01T05:37:36;10.60;;;6.07;;
77507;SDS011;66618;42.666;23.360;2023-04-01T05:40:02;8.88;;;6.00;;
77507;SDS011;66618;42.666;23.360;2023-04-01T05:42:28;10.50;;;5.18;;
77507;SDS011;66618;42.666;23.360;2023-04-01T05:44:54;10.05;;;5.53;;
77507;SDS011;66618;42.666;23.360;2023-04-01T05:47:20;10.57;;;5.82;;
77507;SDS011;66618;42.666;23.360;2023-04-01T05:49:46;12.43;;;5.47;;
77507;SDS011;66618;42.666;23.360;2023-04-01T05:52:12;10.90;;;5.00;;
77507;SDS011;66618;42.666;23.360;2023-04-01T05:54:37;11.18;;;5.20;;
77507;SDS011;66618;42.666;23.360;2023-04-01T05:57:02;9.60;;;5.07;;
77507;SDS011;66618;42.666;23.360;2023-04-01T05:59:28;9.10;;;4.68;;
77507;SDS011;66618;42.666;23.360;2023-04-01T06:01:56;14.32;;;4.70;;
77507;SDS011;66618;42.666;23.360;2023-04-01T06:04:21;8.00;;;4.20;;
77507;SDS011;66618;42.666;23.360;2023-04-01T06:06:46;10.15;;;4.43;;
77507;SDS011;66618;42.666;23.360;2023-04-01T06:09:13;7.32;;;3.67;;
77507;SDS011;66618;42.666;23.360;2023-04-01T06:25:42;6.13;;;3.90;;
77507;SDS011;66618;42.666;23.360;2023-04-01T06:47:07;12.90;;;6.65;;
77507;SDS011;66618;42.666;23.360;2023-04-01T06:49:51;9.02;;;5.50;;
77507;SDS011;66618;42.666;23.360;2023-04-01T06:54:58;11.05;;;5.50;;
77507;SDS011;66618;42.666;23.360;2023-04-01T06:59:54;9.55;;;5.15;;
77507;SDS011;66618;42.666;23.360;2023-04-01T07:02:32;10.23;;;5.20;;
77507;SDS011;66618;42.666;23.360;2023-04-01T07:05:01;9.25;;;4.50;;
77507;SDS011;66618;42.666;23.360;2023-04-01T07:07:35;12.35;;;4.95;;
77507;SDS011;66618;42.666;23.360;2023-04-01T07:10:05;14.95;;;4.78;;
77507;SDS011;66618;42.666;23.360;2023-04-01T07:12:49;12.30;;;4.68;;
77507;SDS011;66618;42.666;23.360;2023-04-01T07:15:22;8.13;;;4.35;;
77507;SDS011;66618;42.666;23.360;2023-04-01T07:17:52;6.82;;;4.88;;
77507;SDS011;66618;42.666;23.360;2023-04-01T07:20:30;11.88;;;5.40;;
77507;SDS011;66618;42.666;23.360;2023-04-01T07:22:58;12.32;;;5.10;;
77507;SDS011;66618;42.666;23.360;2023-04-01T07:25:34;8.90;;;4.80;;
77507;SDS011;66618;42.666;23.360;2023-04-01T07:28:06;7.95;;;4.55;;
77507;SDS011;66618;42.666;23.360;2023-04-01T07:36:02;10.70;;;4.90;;
77507;SDS011;66618;42.666;23.360;2023-04-01T07:38:44;9.80;;;4.45;;
77507;SDS011;66618;42.666;23.360;2023-04-01T07:41:39;8.80;;;4.50;;
77507;SDS011;66618;42.666;23.360;2023-04-01T07:46:54;7.53;;;3.85;;
77507;SDS011;66618;42.666;23.360;2023-04-01T07:49:34;7.63;;;4.50;;
77507;SDS011;66618;42.666;23.360;2023-04-01T07:52:16;10.27;;;4.57;;
77507;SDS011;66618;42.666;23.360;2023-04-01T07:58:00;6.25;;;4.20;;
77507;SDS011;66618;42.666;23.360;2023-04-01T08:00:37;8.15;;;3.97;;
77507;SDS011;66618;42.666;23.360;2023-04-01T08:03:21;8.60;;;4.47;;
77507;SDS011;66618;42.666;23.360;2023-04-01T08:08:51;7.75;;;4.50;;
77507;SDS011;66618;42.666;23.360;2023-04-01T08:11:35;7.85;;;4.20;;
77507;SDS011;66618;42.666;23.360;2023-04-01T08:17:00;8.18;;;4.10;;
77507;SDS011;66618;42.666;23.360;2023-04-01T08:22:11;6.63;;;3.90;;
77507;SDS011;66618;42.666;23.360;2023-04-01T08:24:44;6.35;;;3.67;;
77507;SDS011;66618;42.666;23.360;2023-04-01T08:32:31;6.10;;;3.65;;
77507;SDS011;66618;42.666;23.360;2023-04-01T08:35:21;7.07;;;3.60;;
77507;SDS011;66618;42.666;23.360;2023-04-01T08:38:06;7.32;;;3.58;;
77507;SDS011;66618;42.666;23.360;2023-04-01T08:40:44;11.07;;;3.55;;
77507;SDS011;66618;42.666;23.360;2023-04-01T09:01:23;6.10;;;3.22;;
77507;SDS011;66618;42.666;23.360;2023-04-01T09:04:39;6.22;;;3.40;;
77507;SDS011;66618;42.666;23.360;2023-04-01T09:24:05;5.68;;;3.33;;
77507;SDS011;66618;42.666;23.360;2023-04-01T09:27:05;7.10;;;2.95;;
77507;SDS011;66618;42.666;23.360;2023-04-01T09:29:45;5.32;;;2.50;;
77507;SDS011;66618;42.666;23.360;2023-04-01T09:48:38;5.63;;;2.72;;
77507;SDS011;66618;42.666;23.360;2023-04-01T10:27:11;5.65;;;3.20;;
77507;SDS011;66618;42.666;23.360;2023-04-01T10:43:00;5.47;;;2.70;;
77507;SDS011;66618;42.666;23.360;2023-04-01T10:48:47;7.72;;;3.22;;
77507;SDS011;66618;42.666;23.360;2023-04-01T10:54:49;6.57;;;2.92;;
77507;SDS011;66618;42.666;23.360;2023-04-01T11:27:59;5.00;;;2.60;;
77507;SDS011;66618;42.666;23.360;2023-04-01T11:30:46;5.45;;;2.53;;
77507;SDS011;66618;42.666;23.360;2023-04-01T11:39:24;4.68;;;1.50;;
77507;SDS011;66618;42.666;23.360;2023-04-01T11:44:52;6.20;;;1.80;;
77507;SDS011;66618;42.666;23.360;2023-04-01T11:50:40;5.95;;;1.92;;
77507;SDS011;66618;42.666;23.360;2023-04-01T12:09:30;5.35;;;2.30;;
77507;SDS011;66618;42.666;23.360;2023-04-01T12:37:27;6.10;;;3.72;;
77507;SDS011;66618;42.666;23.360;2023-04-01T12:39:59;7.50;;;3.67;;
77507;SDS011;66618;42.666;23.360;2023-04-01T12:45:31;7.05;;;3.38;;
77507;SDS011;66618;42.666;23.360;2023-04-01T12:50:58;4.45;;;2.97;;
77507;SDS011;66618;42.666;23.360;2023-04-01T12:59:24;6.57;;;3.08;;
77507;SDS011;66618;42.666;23.360;2023-04-01T13:15:28;6.28;;;3.45;;
77507;SDS011;66618;42.666;23.360;2023-04-01T13:20:36;8.65;;;4.40;;
77507;SDS011;66618;42.666;23.360;2023-04-01T13:23:18;5.68;;;3.10;;
77507;SDS011;66618;42.666;23.360;2023-04-01T13:29:04;4.28;;;2.20;;
77507;SDS011;66618;42.666;23.360;2023-04-01T13:40:36;5.30;;;2.70;;
77507;SDS011;66618;42.666;23.360;2023-04-01T13:43:23;5.47;;;2.65;;
77507;SDS011;66618;42.666;23.360;2023-04-01T13:52:05;4.38;;;2.83;;
77507;SDS011;66618;42.666;23.360;2023-04-01T13:54:25;4.72;;;2.70;;
77507;SDS011;66618;42.666;23.360;2023-04-01T14:28:02;4.85;;;3.28;;
77507;SDS011;66618;42.666;23.360;2023-04-01T14:44:57;9.40;;;3.15;;
77507;SDS011;66618;42.666;23.360;2023-04-01T14:50:13;3.65;;;2.90;;
77507;SDS011;66618;42.666;23.360;2023-04-01T14:55:38;5.22;;;3.30;;
77507;SDS011;66618;42.666;23.360;2023-04-01T14:58:14;4.63;;;2.60;;
77507;SDS011;66618;42.666;23.360;2023-04-01T15:00:55;5.70;;;3.05;;
77507;SDS011;66618;42.666;23.360;2023-04-01T15:28:10;4.25;;;2.80;;
77507;SDS011;66618;42.666;23.360;2023-04-01T15:31:02;3.78;;;2.53;;
77507;SDS011;66618;42.666;23.360;2023-04-01T15:41:15;3.08;;;1.67;;
77507;SDS011;66618;42.666;23.360;2023-04-01T15:52:03;4.20;;;2.90;;
77507;SDS011;66618;42.666;23.360;2023-04-01T16:00:09;1.30;;;1.20;;
77507;SDS011;66618;42.666;23.360;2023-04-01T16:02:47;1.80;;;1.60;;
77507;SDS011;66618;42.666;23.360;2023-04-01T16:24:24;6.60;;;3.40;;
77507;SDS011;66618;42.666;23.360;2023-04-01T16:27:36;5.75;;;3.05;;
77507;SDS011;66618;42.666;23.360;2023-04-01T16:33:23;6.15;;;3.60;;
77507;SDS011;66618;42.666;23.360;2023-04-01T16:36:08;5.75;;;3.17;;
77507;SDS011;66618;42.666;23.360;2023-04-01T16:41:12;7.60;;;3.42;;
77507;SDS011;66618;42.666;23.360;2023-04-01T16:48:52;3.58;;;2.60;;
77507;SDS011;66618;42.666;23.360;2023-04-01T16:51:23;3.92;;;2.05;;
77507;SDS011;66618;42.666;23.360;2023-04-01T16:54:05;2.78;;;2.10;;
77507;SDS011;66618;42.666;23.360;2023-04-01T16:56:38;2.72;;;1.85;;
77507;SDS011;66618;42.666;23.360;2023-04-01T17:04:23;3.25;;;1.95;;
77507;SDS011;66618;42.666;23.360;2023-04-01T17:06:57;2.17;;;1.38;;
77507;SDS011;66618;42.666;23.360;2023-04-01T17:09:38;2.30;;;1.90;;
77507;SDS011;66618;42.666;23.360;2023-04-01T17:17:42;1.70;;;1.45;;
77507;SDS011;66618;42.666;23.360;2023-04-01T17:29:21;1.83;;;1.47;;
77507;SDS011;66618;42.666;23.360;2023-04-01T17:39:22;1.75;;;1.42;;
77507;SDS011;66618;42.666;23.360;2023-04-01T17:42:00;1.77;;;1.40;;
77507;SDS011;66618;42.666;23.360;2023-04-01T17:47:25;1.90;;;1.60;;
77507;SDS011;66618;42.666;23.360;2023-04-01T17:52:45;1.73;;;1.63;;
77507;SDS011;66618;42.666;23.360;2023-04-01T18:18:59;3.80;;;3.17;;
77507;SDS011;66618;42.666;23.360;2023-04-01T18:21:45;4.05;;;3.08;;
77507;SDS011;66618;42.666;23.360;2023-04-01T18:24:14;3.33;;;2.90;;
77507;SDS011;66618;42.666;23.360;2023-04-01T18:26:46;4.45;;;3.05;;
77507;SDS011;66618;42.666;23.360;2023-04-01T18:29:32;5.05;;;3.13;;
77507;SDS011;66618;42.666;23.360;2023-04-01T18:34:56;3.10;;;2.78;;
77507;SDS011;66618;42.666;23.360;2023-04-01T18:37:28;3.40;;;2.90;;
77507;SDS011;66618;42.666;23.360;2023-04-01T18:39:59;3.92;;;2.67;;
77507;SDS011;66618;42.666;23.360;2023-04-01T18:42:46;3.55;;;2.65;;
77507;SDS011;66618;42.666;23.360;2023-04-01T18:51:10;3.70;;;2.85;;
77507;SDS011;66618;42.666;23.360;2023-04-01T18:53:42;4.57;;;3.03;;
77507;SDS011;66618;42.666;23.360;2023-04-01T19:07:21;3.45;;;2.60;;
77507;SDS011;66618;42.666;23.360;2023-04-01T19:09:47;3.67;;;2.78;;
77507;SDS011;66618;42.666;23.360;2023-04-01T19:12:24;4.80;;;3.30;;
77507;SDS011;66618;42.666;23.360;2023-04-01T19:20:48;3.75;;;2.40;;
77507;SDS011;66618;42.666;23.360;2023-04-01T19:26:29;3.33;;;2.28;;
77507;SDS011;66618;42.666;23.360;2023-04-01T19:29:02;2.70;;;1.90;;
77507;SDS011;66618;42.666;23.360;2023-04-01T19:32:07;3.15;;;1.75;;
77507;SDS011;66618;42.666;23.360;2023-04-01T19:43:03;1.83;;;1.70;;
77507;SDS011;66618;42.666;23.360;2023-04-01T19:46:06;2.33;;;1.83;;
77507;SDS011;66618;42.666;23.360;2023-04-01T19:51:17;1.67;;;1.50;;
77507;SDS011;66618;42.666;23.360;2023-04-01T19:53:59;1.80;;;1.70;;
77507;SDS011;66618;42.666;23.360;2023-04-01T19:56:49;2.10;;;1.85;;
77507;SDS011;66618;42.666;23.360;2023-04-01T20:08:07;1.77;;;1.63;;
77507;SDS011;66618;42.666;23.360;2023-04-01T20:15:40;1.75;;;1.60;;
77507;SDS011;66618;42.666;23.360;2023-04-01T20:18:18;2.13;;;1.55;;
77507;SDS011;66618;42.666;23.360;2023-04-01T20:20:56;1.85;;;1.67;;
77507;SDS011;66618;42.666;23.360;2023-04-01T20:23:45;2.05;;;1.85;;
77507;SDS011;66618;42.666;23.360;2023-04-01T20:26:37;1.98;;;1.63;;
77507;SDS011;66618;42.666;23.360;2023-04-01T20:31:40;3.13;;;1.80;;
77507;SDS011;66618;42.666;23.360;2023-04-01T20:45:35;1.95;;;1.75;;
77507;SDS011;66618;42.666;23.360;2023-04-01T20:48:27;2.97;;;1.77;;
77507;SDS011;66618;42.666;23.360;2023-04-01T20:51:14;2.95;;;1.73;;
77507;SDS011;66618;42.666;23.360;2023-04-01T20:54:05;1.83;;;1.67;;
77507;SDS011;66618;42.666;23.360;2023-04-01T20:57:06;2.05;;;1.48;;
77507;SDS011;66618;42.666;23.360;2023-04-01T20:59:41;3.63;;;1.65;;
77507;SDS011;66618;42.666;23.360;2023-04-01T21:10:23;2.28;;;1.70;;
77507;SDS011;66618;42.666;23.360;2023-04-01T21:13:07;4.38;;;1.50;;
77507;SDS011;66618;42.666;23.360;2023-04-01T21:23:45;1.70;;;1.33;;
77507;SDS011;66618;42.666;23.360;2023-04-01T21:34:54;1.20;;;1.10;;
77507;SDS011;66618;42.666;23.360;2023-04-01T21:42:43;1.35;;;1.17;;
77507;SDS011;66618;42.666;23.360;2023-04-01T21:45:18;2.05;;;1.35;;
77507;SDS011;66618;42.666;23.360;2023-04-01T21:55:49;1.15;;;1.02;;
77507;SDS011;66618;42.666;23.360;2023-04-01T22:00:55;1.40;;;1.13;;
77507;SDS011;66618;42.666;23.360;2023-04-01T22:06:09;3.22;;;1.45;;
77507;SDS011;66618;42.666;23.360;2023-04-01T22:25:16;1.30;;;1.15;;
77507;SDS011;66618;42.666;23.360;2023-04-01T22:27:49;1.58;;;1.20;;
77507;SDS011;66618;42.666;23.360;2023-04-01T22:30:24;2.20;;;1.50;;
77507;SDS011;66618;42.666;23.360;2023-04-01T22:32:55;3.80;;;1.80;;
77507;SDS011;66618;42.666;23.360;2023-04-01T22:46:09;3.28;;;1.58;;
77507;SDS011;66618;42.666;23.360;2023-04-01T22:59:19;3.90;;;2.22;;
77507;SDS011;66618;42.666;23.360;2023-04-01T23:01:54;3.35;;;2.22;;
77507;SDS011;66618;42.666;23.360;2023-04-01T23:04:32;3.78;;;2.10;;
77507;SDS011;66618;42.666;23.360;2023-04-01T23:07:04;2.83;;;1.60;;
77507;SDS011;66618;42.666;23.360;2023-04-01T23:09:45;1.88;;;1.40;;
77507;SDS011;66618;42.666;23.360;2023-04-01T23:12:12;1.73;;;1.20;;
77507;SDS011;66618;42.666;23.360;2023-04-01T23:20:42;1.20;;;1.10;;
77507;SDS011;66618;42.666;23.360;2023-04-01T23:23:20;2.35;;;1.20;;
77507;SDS011;66618;42.666;23.360;2023-04-01T23:31:00;1.38;;;0.90;;
77507;SDS011;66618;42.666;23.360;2023-04-01T23:33:29;1.10;;;0.90;;
77507;SDS011;66618;42.666;23.360;2023-04-01T23:35:56;1.20;;;0.80;;
77507;SDS011;66618;42.666;23.360;2023-04-01T23:38:39;0.90;;;0.80;;
77507;SDS011;66618;42.666;23.360;2023-04-01T23:41:06;0.93;;;0.63;;
77507;SDS011;66618;42.666;23.360;2023-04-01T23:43:36;0.80;;;0.70;;
77507;SDS011;66618;42.666;23.360;2023-04-01T23:46:03;1.00;;;0.90;;
77507;SDS011;66618;42.666;23.360;2023-04-01T23:48:36;1.40;;;0.65;;
77507;SDS011;66618;42.666;23.360;2023-04-01T23:51:04;0.60;;;0.60;;
77507;SDS011;66618;42.666;23.360;2023-04-01T23:53:47;1.38;;;0.50;;
77507;SDS011;66618;42.666;23.360;2023-04-01T23:56:22;1.65;;;0.70;;
77507;SDS011;66618;42.666;23.360;2023-04-01T23:58:51;0.60;;;0.60;;
